Inhumas, Brazil
Current Conditions -  °F | °C
As of 2:00 AM on Saturday 25 Oct 2014 (Local Time) from SBGO Reporting Station
Overcast Overcast  
Wind Chill: 70°   Ceiling: 7000
Heat Index: 70°   Visibility: 6mi
Dew Point: 64°   Wind: 8mph
Humidity: 83%   Direction: 170°S
Pressure: 29.97"   Gusts: NA
Location:  16.36°S, 49.5°W
Report Text: SBGO 250400Z 17007KT 9999 SCT030 OVC070 21/18 Q1015
Loading
Personal Weather Stations






























Interactive Weather Map
Tropical Storm Tracking
New forecast layout! Learn more

10-Day Weather Forecast

Advertisements
Track Severe Weather on mobile